sensor_id;sensor_type;location;lat;lon;timestamp;P1;durP1;ratioP1;P2;durP2;ratioP2
37231;SDS011;23125;48.156;15.954;2024-01-30T00:02:13;19.85;;;10.40;;
37231;SDS011;23125;48.156;15.954;2024-01-30T00:04:39;19.83;;;10.00;;
37231;SDS011;23125;48.156;15.954;2024-01-30T00:07:05;20.35;;;10.43;;
37231;SDS011;23125;48.156;15.954;2024-01-30T00:09:31;18.20;;;8.90;;
37231;SDS011;23125;48.156;15.954;2024-01-30T00:11:57;18.83;;;9.52;;
37231;SDS011;23125;48.156;15.954;2024-01-30T00:14:23;19.52;;;10.00;;
37231;SDS011;23125;48.156;15.954;2024-01-30T00:16:48;21.45;;;9.57;;
37231;SDS011;23125;48.156;15.954;2024-01-30T00:19:16;15.80;;;9.15;;
37231;SDS011;23125;48.156;15.954;2024-01-30T00:21:42;21.77;;;10.60;;
37231;SDS011;23125;48.156;15.954;2024-01-30T00:24:08;23.38;;;10.63;;
37231;SDS011;23125;48.156;15.954;2024-01-30T00:26:34;18.58;;;9.82;;
37231;SDS011;23125;48.156;15.954;2024-01-30T00:29:00;23.17;;;11.63;;
37231;SDS011;23125;48.156;15.954;2024-01-30T00:31:26;25.50;;;11.80;;
37231;SDS011;23125;48.156;15.954;2024-01-30T00:33:52;23.75;;;10.88;;
37231;SDS011;23125;48.156;15.954;2024-01-30T00:36:18;23.65;;;11.27;;
37231;SDS011;23125;48.156;15.954;2024-01-30T00:38:44;26.20;;;11.70;;
37231;SDS011;23125;48.156;15.954;2024-01-30T00:41:09;19.65;;;10.68;;
37231;SDS011;23125;48.156;15.954;2024-01-30T00:43:36;24.65;;;11.20;;
37231;SDS011;23125;48.156;15.954;2024-01-30T00:46:02;24.02;;;10.88;;
37231;SDS011;23125;48.156;15.954;2024-01-30T00:48:28;20.05;;;9.60;;
37231;SDS011;23125;48.156;15.954;2024-01-30T00:50:54;21.30;;;10.63;;
37231;SDS011;23125;48.156;15.954;2024-01-30T00:53:20;18.17;;;9.55;;
37231;SDS011;23125;48.156;15.954;2024-01-30T00:55:46;22.60;;;10.63;;
37231;SDS011;23125;48.156;15.954;2024-01-30T00:58:12;21.38;;;10.15;;
37231;SDS011;23125;48.156;15.954;2024-01-30T01:00:38;19.35;;;9.85;;
37231;SDS011;23125;48.156;15.954;2024-01-30T01:03:04;17.05;;;8.85;;
37231;SDS011;23125;48.156;15.954;2024-01-30T01:05:30;18.52;;;10.02;;
37231;SDS011;23125;48.156;15.954;2024-01-30T01:07:56;19.88;;;9.63;;
37231;SDS011;23125;48.156;15.954;2024-01-30T01:10:22;19.40;;;10.50;;
37231;SDS011;23125;48.156;15.954;2024-01-30T01:12:48;17.45;;;10.32;;
37231;SDS011;23125;48.156;15.954;2024-01-30T01:15:15;21.55;;;10.18;;
37231;SDS011;23125;48.156;15.954;2024-01-30T01:17:41;17.20;;;9.35;;
37231;SDS011;23125;48.156;15.954;2024-01-30T01:20:07;19.33;;;9.73;;
37231;SDS011;23125;48.156;15.954;2024-01-30T01:22:34;20.63;;;9.10;;
37231;SDS011;23125;48.156;15.954;2024-01-30T01:25:00;17.75;;;9.25;;
37231;SDS011;23125;48.156;15.954;2024-01-30T01:27:26;20.45;;;9.45;;
37231;SDS011;23125;48.156;15.954;2024-01-30T01:29:53;20.13;;;10.02;;
37231;SDS011;23125;48.156;15.954;2024-01-30T01:32:19;19.42;;;9.55;;
37231;SDS011;23125;48.156;15.954;2024-01-30T01:34:46;16.98;;;8.65;;
37231;SDS011;23125;48.156;15.954;2024-01-30T01:37:12;20.60;;;9.20;;
37231;SDS011;23125;48.156;15.954;2024-01-30T01:39:38;17.90;;;9.20;;
37231;SDS011;23125;48.156;15.954;2024-01-30T01:42:04;14.95;;;8.27;;
37231;SDS011;23125;48.156;15.954;2024-01-30T01:44:29;18.33;;;9.93;;
37231;SDS011;23125;48.156;15.954;2024-01-30T01:46:55;18.38;;;8.77;;
37231;SDS011;23125;48.156;15.954;2024-01-30T01:49:24;16.98;;;9.57;;
37231;SDS011;23125;48.156;15.954;2024-01-30T01:51:53;16.65;;;8.48;;
37231;SDS011;23125;48.156;15.954;2024-01-30T01:54:23;17.83;;;9.50;;
37231;SDS011;23125;48.156;15.954;2024-01-30T01:56:52;20.17;;;9.10;;
37231;SDS011;23125;48.156;15.954;2024-01-30T01:59:18;21.92;;;9.48;;
37231;SDS011;23125;48.156;15.954;2024-01-30T02:01:45;17.92;;;8.63;;
37231;SDS011;23125;48.156;15.954;2024-01-30T02:04:14;12.73;;;8.17;;
37231;SDS011;23125;48.156;15.954;2024-01-30T02:06:41;16.33;;;7.90;;
37231;SDS011;23125;48.156;15.954;2024-01-30T02:09:08;13.60;;;7.82;;
37231;SDS011;23125;48.156;15.954;2024-01-30T02:11:34;16.92;;;8.50;;
37231;SDS011;23125;48.156;15.954;2024-01-30T02:14:04;16.90;;;8.18;;
37231;SDS011;23125;48.156;15.954;2024-01-30T02:16:30;18.00;;;7.78;;
37231;SDS011;23125;48.156;15.954;2024-01-30T02:18:57;19.67;;;9.13;;
37231;SDS011;23125;48.156;15.954;2024-01-30T02:21:23;13.68;;;7.80;;
37231;SDS011;23125;48.156;15.954;2024-01-30T02:23:49;18.52;;;9.23;;
37231;SDS011;23125;48.156;15.954;2024-01-30T02:26:17;14.82;;;8.48;;
37231;SDS011;23125;48.156;15.954;2024-01-30T02:28:43;14.65;;;8.52;;
37231;SDS011;23125;48.156;15.954;2024-01-30T02:31:09;14.35;;;8.18;;
37231;SDS011;23125;48.156;15.954;2024-01-30T02:33:35;13.95;;;8.35;;
37231;SDS011;23125;48.156;15.954;2024-01-30T02:36:00;15.77;;;7.28;;
37231;SDS011;23125;48.156;15.954;2024-01-30T02:38:26;14.75;;;7.50;;
37231;SDS011;23125;48.156;15.954;2024-01-30T02:40:54;21.60;;;7.90;;
37231;SDS011;23125;48.156;15.954;2024-01-30T02:43:20;15.35;;;8.02;;
37231;SDS011;23125;48.156;15.954;2024-01-30T02:45:46;14.73;;;8.82;;
37231;SDS011;23125;48.156;15.954;2024-01-30T02:48:12;14.55;;;7.55;;
37231;SDS011;23125;48.156;15.954;2024-01-30T02:50:38;16.85;;;9.10;;
37231;SDS011;23125;48.156;15.954;2024-01-30T02:53:04;15.00;;;7.75;;
37231;SDS011;23125;48.156;15.954;2024-01-30T02:55:29;14.65;;;8.65;;
37231;SDS011;23125;48.156;15.954;2024-01-30T02:57:55;18.73;;;9.43;;
37231;SDS011;23125;48.156;15.954;2024-01-30T03:00:21;15.55;;;8.35;;
37231;SDS011;23125;48.156;15.954;2024-01-30T03:02:47;14.82;;;8.07;;
37231;SDS011;23125;48.156;15.954;2024-01-30T03:05:13;16.17;;;9.23;;
37231;SDS011;23125;48.156;15.954;2024-01-30T03:07:38;16.52;;;9.10;;
37231;SDS011;23125;48.156;15.954;2024-01-30T03:10:04;16.98;;;8.35;;
37231;SDS011;23125;48.156;15.954;2024-01-30T03:12:31;12.02;;;7.35;;
37231;SDS011;23125;48.156;15.954;2024-01-30T03:14:58;18.15;;;8.55;;
37231;SDS011;23125;48.156;15.954;2024-01-30T03:17:23;12.48;;;7.50;;
37231;SDS011;23125;48.156;15.954;2024-01-30T03:19:49;14.25;;;8.15;;
37231;SDS011;23125;48.156;15.954;2024-01-30T03:22:16;13.25;;;7.68;;
37231;SDS011;23125;48.156;15.954;2024-01-30T03:24:42;14.65;;;7.32;;
37231;SDS011;23125;48.156;15.954;2024-01-30T03:27:08;16.02;;;8.13;;
37231;SDS011;23125;48.156;15.954;2024-01-30T03:29:34;14.60;;;7.85;;
37231;SDS011;23125;48.156;15.954;2024-01-30T03:32:00;14.55;;;7.82;;
37231;SDS011;23125;48.156;15.954;2024-01-30T03:34:26;18.33;;;8.52;;
37231;SDS011;23125;48.156;15.954;2024-01-30T03:36:52;15.95;;;8.60;;
37231;SDS011;23125;48.156;15.954;2024-01-30T03:39:18;15.60;;;7.95;;
37231;SDS011;23125;48.156;15.954;2024-01-30T03:41:44;15.90;;;8.82;;
37231;SDS011;23125;48.156;15.954;2024-01-30T03:44:10;17.25;;;9.52;;
37231;SDS011;23125;48.156;15.954;2024-01-30T03:46:36;17.98;;;8.75;;
37231;SDS011;23125;48.156;15.954;2024-01-30T03:49:02;17.85;;;9.00;;
37231;SDS011;23125;48.156;15.954;2024-01-30T03:51:28;17.75;;;8.43;;
37231;SDS011;23125;48.156;15.954;2024-01-30T03:53:54;15.15;;;8.07;;
37231;SDS011;23125;48.156;15.954;2024-01-30T03:56:20;18.17;;;8.70;;
37231;SDS011;23125;48.156;15.954;2024-01-30T03:58:46;15.98;;;8.43;;
37231;SDS011;23125;48.156;15.954;2024-01-30T04:01:13;16.90;;;9.35;;
37231;SDS011;23125;48.156;15.954;2024-01-30T04:03:40;16.75;;;8.23;;
37231;SDS011;23125;48.156;15.954;2024-01-30T04:06:06;18.38;;;9.00;;
37231;SDS011;23125;48.156;15.954;2024-01-30T04:08:33;26.90;;;13.70;;
37231;SDS011;23125;48.156;15.954;2024-01-30T04:10:58;20.02;;;10.63;;
37231;SDS011;23125;48.156;15.954;2024-01-30T04:13:28;28.08;;;12.73;;
37231;SDS011;23125;48.156;15.954;2024-01-30T04:15:54;25.52;;;11.55;;
37231;SDS011;23125;48.156;15.954;2024-01-30T04:18:20;26.42;;;12.10;;
37231;SDS011;23125;48.156;15.954;2024-01-30T04:20:46;35.45;;;13.93;;
37231;SDS011;23125;48.156;15.954;2024-01-30T04:23:12;34.17;;;15.98;;
37231;SDS011;23125;48.156;15.954;2024-01-30T04:25:38;40.38;;;16.95;;
37231;SDS011;23125;48.156;15.954;2024-01-30T04:28:03;40.55;;;16.90;;
37231;SDS011;23125;48.156;15.954;2024-01-30T04:30:29;41.58;;;17.52;;
37231;SDS011;23125;48.156;15.954;2024-01-30T04:32:55;34.88;;;14.10;;
37231;SDS011;23125;48.156;15.954;2024-01-30T04:35:21;41.95;;;14.52;;
37231;SDS011;23125;48.156;15.954;2024-01-30T04:37:51;36.85;;;15.32;;
37231;SDS011;23125;48.156;15.954;2024-01-30T04:40:18;39.35;;;15.43;;
37231;SDS011;23125;48.156;15.954;2024-01-30T04:42:44;37.47;;;16.10;;
37231;SDS011;23125;48.156;15.954;2024-01-30T04:45:10;34.90;;;16.70;;
37231;SDS011;23125;48.156;15.954;2024-01-30T04:47:36;35.75;;;16.20;;
37231;SDS011;23125;48.156;15.954;2024-01-30T04:50:04;38.92;;;17.27;;
37231;SDS011;23125;48.156;15.954;2024-01-30T04:52:34;35.22;;;17.15;;
37231;SDS011;23125;48.156;15.954;2024-01-30T04:55:01;31.45;;;15.65;;
37231;SDS011;23125;48.156;15.954;2024-01-30T04:57:27;33.10;;;16.17;;
37231;SDS011;23125;48.156;15.954;2024-01-30T04:59:53;36.38;;;17.88;;
37231;SDS011;23125;48.156;15.954;2024-01-30T05:02:19;36.75;;;14.90;;
37231;SDS011;23125;48.156;15.954;2024-01-30T05:04:45;31.88;;;14.02;;
37231;SDS011;23125;48.156;15.954;2024-01-30T05:07:11;32.83;;;14.13;;
37231;SDS011;23125;48.156;15.954;2024-01-30T05:09:37;44.30;;;16.02;;
37231;SDS011;23125;48.156;15.954;2024-01-30T05:12:03;39.00;;;16.40;;
37231;SDS011;23125;48.156;15.954;2024-01-30T05:14:29;38.67;;;18.77;;
37231;SDS011;23125;48.156;15.954;2024-01-30T05:16:55;38.15;;;16.48;;
37231;SDS011;23125;48.156;15.954;2024-01-30T05:19:20;31.02;;;14.57;;
37231;SDS011;23125;48.156;15.954;2024-01-30T05:21:48;30.33;;;13.35;;
37231;SDS011;23125;48.156;15.954;2024-01-30T05:24:15;34.83;;;15.73;;
37231;SDS011;23125;48.156;15.954;2024-01-30T05:26:41;35.45;;;13.82;;
37231;SDS011;23125;48.156;15.954;2024-01-30T05:29:07;44.75;;;17.13;;
37231;SDS011;23125;48.156;15.954;2024-01-30T05:31:33;50.10;;;19.42;;
37231;SDS011;23125;48.156;15.954;2024-01-30T05:33:59;46.83;;;17.98;;
37231;SDS011;23125;48.156;15.954;2024-01-30T05:36:25;37.75;;;16.00;;
37231;SDS011;23125;48.156;15.954;2024-01-30T05:38:51;32.95;;;14.77;;
37231;SDS011;23125;48.156;15.954;2024-01-30T05:41:17;31.20;;;15.00;;
37231;SDS011;23125;48.156;15.954;2024-01-30T05:43:44;29.80;;;12.45;;
37231;SDS011;23125;48.156;15.954;2024-01-30T05:46:09;42.88;;;15.45;;
37231;SDS011;23125;48.156;15.954;2024-01-30T05:48:35;27.75;;;14.18;;
37231;SDS011;23125;48.156;15.954;2024-01-30T05:51:02;38.40;;;16.25;;
37231;SDS011;23125;48.156;15.954;2024-01-30T05:53:29;32.40;;;12.95;;
37231;SDS011;23125;48.156;15.954;2024-01-30T05:55:55;43.55;;;17.92;;
37231;SDS011;23125;48.156;15.954;2024-01-30T05:58:21;53.22;;;24.52;;
37231;SDS011;23125;48.156;15.954;2024-01-30T06:00:47;51.22;;;23.33;;
37231;SDS011;23125;48.156;15.954;2024-01-30T06:03:13;25.58;;;14.75;;
37231;SDS011;23125;48.156;15.954;2024-01-30T06:05:39;38.13;;;17.63;;
37231;SDS011;23125;48.156;15.954;2024-01-30T06:08:05;34.75;;;13.32;;
37231;SDS011;23125;48.156;15.954;2024-01-30T06:10:31;24.13;;;13.70;;
37231;SDS011;23125;48.156;15.954;2024-01-30T06:12:57;19.60;;;10.32;;
37231;SDS011;23125;48.156;15.954;2024-01-30T06:15:22;24.38;;;14.48;;
37231;SDS011;23125;48.156;15.954;2024-01-30T06:17:48;30.92;;;13.73;;
37231;SDS011;23125;48.156;15.954;2024-01-30T06:20:14;26.40;;;14.65;;
37231;SDS011;23125;48.156;15.954;2024-01-30T06:22:40;24.35;;;13.57;;
37231;SDS011;23125;48.156;15.954;2024-01-30T06:25:06;25.77;;;12.50;;
37231;SDS011;23125;48.156;15.954;2024-01-30T06:27:33;27.70;;;13.63;;
37231;SDS011;23125;48.156;15.954;2024-01-30T06:29:58;23.30;;;12.65;;
37231;SDS011;23125;48.156;15.954;2024-01-30T06:32:25;27.10;;;13.95;;
37231;SDS011;23125;48.156;15.954;2024-01-30T06:34:50;28.65;;;14.90;;
37231;SDS011;23125;48.156;15.954;2024-01-30T06:37:16;27.08;;;12.70;;
37231;SDS011;23125;48.156;15.954;2024-01-30T06:39:42;23.17;;;13.43;;
37231;SDS011;23125;48.156;15.954;2024-01-30T06:42:09;21.52;;;13.00;;
37231;SDS011;23125;48.156;15.954;2024-01-30T06:44:36;22.98;;;11.82;;
37231;SDS011;23125;48.156;15.954;2024-01-30T06:47:02;24.67;;;13.02;;
37231;SDS011;23125;48.156;15.954;2024-01-30T06:49:28;24.77;;;13.65;;
37231;SDS011;23125;48.156;15.954;2024-01-30T06:51:54;23.30;;;13.57;;
37231;SDS011;23125;48.156;15.954;2024-01-30T06:54:20;24.23;;;11.00;;
37231;SDS011;23125;48.156;15.954;2024-01-30T06:56:45;26.50;;;12.07;;
37231;SDS011;23125;48.156;15.954;2024-01-30T06:59:11;31.08;;;12.95;;
37231;SDS011;23125;48.156;15.954;2024-01-30T07:01:37;32.58;;;12.80;;
37231;SDS011;23125;48.156;15.954;2024-01-30T07:04:03;26.67;;;13.13;;
37231;SDS011;23125;48.156;15.954;2024-01-30T07:06:29;27.25;;;12.77;;
37231;SDS011;23125;48.156;15.954;2024-01-30T07:08:55;20.77;;;13.02;;
37231;SDS011;23125;48.156;15.954;2024-01-30T07:11:21;27.55;;;13.95;;
37231;SDS011;23125;48.156;15.954;2024-01-30T07:13:51;25.67;;;12.82;;
37231;SDS011;23125;48.156;15.954;2024-01-30T07:16:17;24.15;;;12.45;;
37231;SDS011;23125;48.156;15.954;2024-01-30T07:18:43;24.63;;;13.55;;
37231;SDS011;23125;48.156;15.954;2024-01-30T07:21:10;23.33;;;13.10;;
37231;SDS011;23125;48.156;15.954;2024-01-30T07:23:36;24.88;;;14.00;;
37231;SDS011;23125;48.156;15.954;2024-01-30T07:26:04;23.40;;;13.23;;
37231;SDS011;23125;48.156;15.954;2024-01-30T07:28:32;23.77;;;13.88;;
37231;SDS011;23125;48.156;15.954;2024-01-30T07:30:58;22.90;;;13.00;;
37231;SDS011;23125;48.156;15.954;2024-01-30T07:33:24;23.70;;;13.05;;
37231;SDS011;23125;48.156;15.954;2024-01-30T07:35:51;26.20;;;13.43;;
37231;SDS011;23125;48.156;15.954;2024-01-30T07:38:18;37.53;;;13.60;;
37231;SDS011;23125;48.156;15.954;2024-01-30T07:40:44;27.50;;;13.43;;
37231;SDS011;23125;48.156;15.954;2024-01-30T07:43:11;21.27;;;12.77;;
37231;SDS011;23125;48.156;15.954;2024-01-30T07:45:37;33.67;;;13.77;;
37231;SDS011;23125;48.156;15.954;2024-01-30T07:48:07;22.77;;;12.77;;
37231;SDS011;23125;48.156;15.954;2024-01-30T07:50:33;22.73;;;14.00;;
37231;SDS011;23125;48.156;15.954;2024-01-30T07:52:59;21.80;;;13.25;;
37231;SDS011;23125;48.156;15.954;2024-01-30T07:58:15;24.67;;;14.43;;
37231;SDS011;23125;48.156;15.954;2024-01-30T08:00:40;23.38;;;12.98;;
37231;SDS011;23125;48.156;15.954;2024-01-30T08:03:06;24.83;;;13.10;;
37231;SDS011;23125;48.156;15.954;2024-01-30T08:05:32;30.63;;;13.07;;
37231;SDS011;23125;48.156;15.954;2024-01-30T08:07:58;24.80;;;13.27;;
37231;SDS011;23125;48.156;15.954;2024-01-30T08:10:24;36.95;;;14.60;;
37231;SDS011;23125;48.156;15.954;2024-01-30T08:12:50;25.48;;;12.85;;
37231;SDS011;23125;48.156;15.954;2024-01-30T08:15:16;25.95;;;13.77;;
37231;SDS011;23125;48.156;15.954;2024-01-30T08:17:42;25.30;;;13.38;;
37231;SDS011;23125;48.156;15.954;2024-01-30T08:20:10;21.40;;;12.20;;
37231;SDS011;23125;48.156;15.954;2024-01-30T08:22:40;25.30;;;12.38;;
37231;SDS011;23125;48.156;15.954;2024-01-30T08:25:06;24.88;;;13.63;;
37231;SDS011;23125;48.156;15.954;2024-01-30T08:27:33;32.00;;;14.43;;
37231;SDS011;23125;48.156;15.954;2024-01-30T08:30:01;23.45;;;12.82;;
37231;SDS011;23125;48.156;15.954;2024-01-30T08:32:28;27.08;;;12.60;;
37231;SDS011;23125;48.156;15.954;2024-01-30T08:34:54;33.70;;;12.63;;
37231;SDS011;23125;48.156;15.954;2024-01-30T08:37:19;21.63;;;12.65;;
37231;SDS011;23125;48.156;15.954;2024-01-30T08:39:45;22.73;;;13.18;;
37231;SDS011;23125;48.156;15.954;2024-01-30T08:42:11;26.83;;;12.95;;
37231;SDS011;23125;48.156;15.954;2024-01-30T08:44:37;23.25;;;13.45;;
37231;SDS011;23125;48.156;15.954;2024-01-30T08:47:03;27.52;;;14.48;;
37231;SDS011;23125;48.156;15.954;2024-01-30T08:49:29;23.40;;;13.02;;
37231;SDS011;23125;48.156;15.954;2024-01-30T08:51:55;25.55;;;12.90;;
37231;SDS011;23125;48.156;15.954;2024-01-30T08:54:23;19.88;;;11.48;;
37231;SDS011;23125;48.156;15.954;2024-01-30T08:56:49;24.45;;;13.57;;
37231;SDS011;23125;48.156;15.954;2024-01-30T08:59:15;24.02;;;12.98;;
37231;SDS011;23125;48.156;15.954;2024-01-30T09:01:41;21.48;;;13.00;;
37231;SDS011;23125;48.156;15.954;2024-01-30T09:04:07;21.48;;;12.15;;
37231;SDS011;23125;48.156;15.954;2024-01-30T09:06:33;22.23;;;13.02;;
37231;SDS011;23125;48.156;15.954;2024-01-30T09:08:59;21.05;;;12.93;;
37231;SDS011;23125;48.156;15.954;2024-01-30T09:11:25;24.15;;;13.13;;
37231;SDS011;23125;48.156;15.954;2024-01-30T09:13:50;24.90;;;13.63;;
37231;SDS011;23125;48.156;15.954;2024-01-30T09:16:16;23.27;;;13.68;;
37231;SDS011;23125;48.156;15.954;2024-01-30T09:18:42;23.88;;;13.35;;
37231;SDS011;23125;48.156;15.954;2024-01-30T09:21:08;20.75;;;12.18;;
37231;SDS011;23125;48.156;15.954;2024-01-30T09:23:35;24.08;;;13.57;;
37231;SDS011;23125;48.156;15.954;2024-01-30T09:26:01;22.30;;;11.75;;
37231;SDS011;23125;48.156;15.954;2024-01-30T09:28:26;26.05;;;14.02;;
37231;SDS011;23125;48.156;15.954;2024-01-30T09:30:52;22.38;;;12.75;;
37231;SDS011;23125;48.156;15.954;2024-01-30T09:33:18;24.98;;;13.68;;
37231;SDS011;23125;48.156;15.954;2024-01-30T09:35:45;22.80;;;13.05;;
37231;SDS011;23125;48.156;15.954;2024-01-30T09:38:11;23.98;;;13.43;;
37231;SDS011;23125;48.156;15.954;2024-01-30T09:40:36;25.02;;;13.90;;
37231;SDS011;23125;48.156;15.954;2024-01-30T09:43:03;23.17;;;12.77;;
37231;SDS011;23125;48.156;15.954;2024-01-30T09:45:29;24.95;;;13.55;;
37231;SDS011;23125;48.156;15.954;2024-01-30T09:47:58;21.95;;;13.35;;
37231;SDS011;23125;48.156;15.954;2024-01-30T09:50:25;21.17;;;12.80;;
37231;SDS011;23125;48.156;15.954;2024-01-30T09:52:52;23.45;;;13.55;;
37231;SDS011;23125;48.156;15.954;2024-01-30T09:55:22;21.45;;;13.70;;
37231;SDS011;23125;48.156;15.954;2024-01-30T09:57:49;21.13;;;12.82;;
37231;SDS011;23125;48.156;15.954;2024-01-30T10:00:15;24.98;;;12.98;;
37231;SDS011;23125;48.156;15.954;2024-01-30T10:02:41;26.75;;;13.38;;
37231;SDS011;23125;48.156;15.954;2024-01-30T10:05:07;21.90;;;12.77;;
37231;SDS011;23125;48.156;15.954;2024-01-30T10:07:34;26.40;;;15.05;;
37231;SDS011;23125;48.156;15.954;2024-01-30T10:10:00;23.25;;;13.95;;
37231;SDS011;23125;48.156;15.954;2024-01-30T10:12:26;23.10;;;13.45;;
37231;SDS011;23125;48.156;15.954;2024-01-30T10:14:53;24.00;;;14.20;;
37231;SDS011;23125;48.156;15.954;2024-01-30T10:17:21;27.45;;;14.68;;
37231;SDS011;23125;48.156;15.954;2024-01-30T10:19:49;22.60;;;13.20;;
37231;SDS011;23125;48.156;15.954;2024-01-30T10:22:16;22.95;;;13.68;;
37231;SDS011;23125;48.156;15.954;2024-01-30T10:24:42;25.95;;;13.68;;
37231;SDS011;23125;48.156;15.954;2024-01-30T10:27:10;24.45;;;13.80;;
37231;SDS011;23125;48.156;15.954;2024-01-30T10:29:37;24.80;;;13.70;;
37231;SDS011;23125;48.156;15.954;2024-01-30T10:32:03;22.63;;;13.57;;
37231;SDS011;23125;48.156;15.954;2024-01-30T10:34:30;22.45;;;13.02;;
37231;SDS011;23125;48.156;15.954;2024-01-30T10:37:00;24.35;;;14.88;;
37231;SDS011;23125;48.156;15.954;2024-01-30T10:39:41;25.70;;;14.55;;
37231;SDS011;23125;48.156;15.954;2024-01-30T10:42:12;24.60;;;14.52;;
37231;SDS011;23125;48.156;15.954;2024-01-30T10:44:43;24.15;;;14.18;;
37231;SDS011;23125;48.156;15.954;2024-01-30T10:47:18;25.00;;;14.32;;
37231;SDS011;23125;48.156;15.954;2024-01-30T10:49:51;28.42;;;14.85;;
37231;SDS011;23125;48.156;15.954;2024-01-30T10:52:19;24.77;;;14.40;;
37231;SDS011;23125;48.156;15.954;2024-01-30T10:54:46;24.02;;;14.20;;
37231;SDS011;23125;48.156;15.954;2024-01-30T10:57:12;27.80;;;14.40;;
37231;SDS011;23125;48.156;15.954;2024-01-30T10:59:40;20.60;;;13.00;;
37231;SDS011;23125;48.156;15.954;2024-01-30T11:02:08;22.50;;;13.57;;
37231;SDS011;23125;48.156;15.954;2024-01-30T11:04:38;23.00;;;13.70;;
37231;SDS011;23125;48.156;15.954;2024-01-30T11:07:15;24.27;;;13.38;;
37231;SDS011;23125;48.156;15.954;2024-01-30T11:09:52;21.45;;;13.45;;
37231;SDS011;23125;48.156;15.954;2024-01-30T11:12:28;25.43;;;13.80;;
37231;SDS011;23125;48.156;15.954;2024-01-30T11:17:51;22.65;;;14.45;;
37231;SDS011;23125;48.156;15.954;2024-01-30T11:20:30;24.00;;;14.43;;
37231;SDS011;23125;48.156;15.954;2024-01-30T11:22:57;25.73;;;14.70;;
37231;SDS011;23125;48.156;15.954;2024-01-30T11:25:24;24.58;;;14.88;;
37231;SDS011;23125;48.156;15.954;2024-01-30T11:27:51;25.02;;;14.63;;
37231;SDS011;23125;48.156;15.954;2024-01-30T11:30:25;22.38;;;13.27;;
37231;SDS011;23125;48.156;15.954;2024-01-30T11:35:35;28.27;;;15.95;;
37231;SDS011;23125;48.156;15.954;2024-01-30T11:38:02;26.45;;;14.82;;
37231;SDS011;23125;48.156;15.954;2024-01-30T11:40:29;27.23;;;16.08;;
37231;SDS011;23125;48.156;15.954;2024-01-30T11:42:57;27.42;;;14.68;;
37231;SDS011;23125;48.156;15.954;2024-01-30T11:45:25;28.98;;;15.90;;
37231;SDS011;23125;48.156;15.954;2024-01-30T11:47:52;24.45;;;14.05;;
37231;SDS011;23125;48.156;15.954;2024-01-30T11:50:19;26.42;;;15.40;;
37231;SDS011;23125;48.156;15.954;2024-01-30T11:52:46;27.50;;;15.27;;
37231;SDS011;23125;48.156;15.954;2024-01-30T11:55:15;26.70;;;14.82;;
37231;SDS011;23125;48.156;15.954;2024-01-30T11:57:41;24.88;;;15.07;;
37231;SDS011;23125;48.156;15.954;2024-01-30T12:02:43;26.27;;;15.32;;
37231;SDS011;23125;48.156;15.954;2024-01-30T12:05:14;25.85;;;14.77;;
37231;SDS011;23125;48.156;15.954;2024-01-30T12:07:40;28.48;;;15.70;;
37231;SDS011;23125;48.156;15.954;2024-01-30T12:10:09;26.23;;;15.57;;
37231;SDS011;23125;48.156;15.954;2024-01-30T12:12:35;27.30;;;15.57;;
37231;SDS011;23125;48.156;15.954;2024-01-30T12:15:02;28.13;;;16.55;;
37231;SDS011;23125;48.156;15.954;2024-01-30T12:17:31;27.27;;;15.30;;
37231;SDS011;23125;48.156;15.954;2024-01-30T12:20:09;26.33;;;15.63;;
37231;SDS011;23125;48.156;15.954;2024-01-30T12:22:43;26.67;;;15.00;;
37231;SDS011;23125;48.156;15.954;2024-01-30T12:25:12;29.85;;;16.83;;
37231;SDS011;23125;48.156;15.954;2024-01-30T12:27:41;28.25;;;15.93;;
37231;SDS011;23125;48.156;15.954;2024-01-30T12:30:09;26.02;;;15.70;;
37231;SDS011;23125;48.156;15.954;2024-01-30T12:32:37;28.50;;;16.60;;
37231;SDS011;23125;48.156;15.954;2024-01-30T12:35:12;29.55;;;15.48;;
37231;SDS011;23125;48.156;15.954;2024-01-30T12:37:43;27.27;;;15.68;;
37231;SDS011;23125;48.156;15.954;2024-01-30T12:40:10;27.08;;;16.80;;
37231;SDS011;23125;48.156;15.954;2024-01-30T12:42:40;29.77;;;16.63;;
37231;SDS011;23125;48.156;15.954;2024-01-30T12:45:08;27.27;;;16.25;;
37231;SDS011;23125;48.156;15.954;2024-01-30T12:47:34;30.85;;;15.57;;
37231;SDS011;23125;48.156;15.954;2024-01-30T12:50:00;26.70;;;15.45;;
37231;SDS011;23125;48.156;15.954;2024-01-30T12:52:26;27.75;;;16.58;;
37231;SDS011;23125;48.156;15.954;2024-01-30T12:54:53;28.55;;;15.98;;
37231;SDS011;23125;48.156;15.954;2024-01-30T12:57:19;27.88;;;15.25;;
37231;SDS011;23125;48.156;15.954;2024-01-30T12:59:46;27.70;;;15.50;;
37231;SDS011;23125;48.156;15.954;2024-01-30T13:02:13;26.63;;;15.15;;
37231;SDS011;23125;48.156;15.954;2024-01-30T13:04:39;27.65;;;15.60;;
37231;SDS011;23125;48.156;15.954;2024-01-30T13:07:06;27.80;;;16.20;;
37231;SDS011;23125;48.156;15.954;2024-01-30T13:09:32;28.45;;;16.65;;
37231;SDS011;23125;48.156;15.954;2024-01-30T13:11:58;29.75;;;16.00;;
37231;SDS011;23125;48.156;15.954;2024-01-30T13:14:25;26.55;;;15.32;;
37231;SDS011;23125;48.156;15.954;2024-01-30T13:16:51;30.33;;;15.55;;
37231;SDS011;23125;48.156;15.954;2024-01-30T13:19:18;26.77;;;16.98;;
37231;SDS011;23125;48.156;15.954;2024-01-30T13:21:43;27.83;;;16.73;;
37231;SDS011;23125;48.156;15.954;2024-01-30T13:24:10;31.98;;;17.70;;
37231;SDS011;23125;48.156;15.954;2024-01-30T13:26:36;32.22;;;17.75;;
37231;SDS011;23125;48.156;15.954;2024-01-30T13:29:02;29.77;;;16.92;;
37231;SDS011;23125;48.156;15.954;2024-01-30T13:31:28;41.67;;;20.23;;
37231;SDS011;23125;48.156;15.954;2024-01-30T13:33:55;30.33;;;16.70;;
37231;SDS011;23125;48.156;15.954;2024-01-30T13:36:21;34.05;;;16.83;;
37231;SDS011;23125;48.156;15.954;2024-01-30T13:38:47;32.53;;;17.52;;
37231;SDS011;23125;48.156;15.954;2024-01-30T13:41:14;33.72;;;17.05;;
37231;SDS011;23125;48.156;15.954;2024-01-30T13:43:40;33.97;;;19.60;;
37231;SDS011;23125;48.156;15.954;2024-01-30T13:46:06;34.42;;;17.58;;
37231;SDS011;23125;48.156;15.954;2024-01-30T13:48:31;32.63;;;17.65;;
37231;SDS011;23125;48.156;15.954;2024-01-30T13:50:57;34.28;;;17.95;;
37231;SDS011;23125;48.156;15.954;2024-01-30T13:53:23;32.17;;;18.77;;
37231;SDS011;23125;48.156;15.954;2024-01-30T13:55:49;36.20;;;18.80;;
37231;SDS011;23125;48.156;15.954;2024-01-30T13:58:15;33.92;;;17.63;;
37231;SDS011;23125;48.156;15.954;2024-01-30T14:00:41;33.58;;;18.85;;
37231;SDS011;23125;48.156;15.954;2024-01-30T14:03:07;31.83;;;17.20;;
37231;SDS011;23125;48.156;15.954;2024-01-30T14:05:32;35.80;;;18.52;;
37231;SDS011;23125;48.156;15.954;2024-01-30T14:07:58;32.08;;;17.98;;
37231;SDS011;23125;48.156;15.954;2024-01-30T14:10:25;36.00;;;18.27;;
37231;SDS011;23125;48.156;15.954;2024-01-30T14:12:51;31.67;;;17.20;;
37231;SDS011;23125;48.156;15.954;2024-01-30T14:15:17;32.95;;;18.92;;
37231;SDS011;23125;48.156;15.954;2024-01-30T14:17:47;31.40;;;17.83;;
37231;SDS011;23125;48.156;15.954;2024-01-30T14:20:15;34.50;;;18.48;;